sensor_id;sensor_type;location;lat;lon;timestamp;P1;durP1;ratioP1;P2;durP2;ratioP2
11731;SDS011;5922;53.734;10.258;2023-08-31T00:02:13;10.90;;;9.90;;
11731;SDS011;5922;53.734;10.258;2023-08-31T00:04:40;12.23;;;11.07;;
11731;SDS011;5922;53.734;10.258;2023-08-31T00:07:08;11.17;;;9.93;;
11731;SDS011;5922;53.734;10.258;2023-08-31T00:09:35;12.07;;;10.87;;
11731;SDS011;5922;53.734;10.258;2023-08-31T00:12:05;11.43;;;10.33;;
11731;SDS011;5922;53.734;10.258;2023-08-31T00:14:33;11.20;;;10.10;;
11731;SDS011;5922;53.734;10.258;2023-08-31T00:17:02;11.07;;;9.90;;
11731;SDS011;5922;53.734;10.258;2023-08-31T00:19:30;11.80;;;10.70;;
11731;SDS011;5922;53.734;10.258;2023-08-31T00:21:57;11.27;;;10.17;;
11731;SDS011;5922;53.734;10.258;2023-08-31T00:24:30;12.47;;;11.20;;
11731;SDS011;5922;53.734;10.258;2023-08-31T00:27:01;12.33;;;9.67;;
11731;SDS011;5922;53.734;10.258;2023-08-31T00:29:33;10.33;;;9.30;;
11731;SDS011;5922;53.734;10.258;2023-08-31T00:32:02;11.00;;;9.90;;
11731;SDS011;5922;53.734;10.258;2023-08-31T00:34:29;11.77;;;9.57;;
11731;SDS011;5922;53.734;10.258;2023-08-31T00:36:57;10.50;;;9.40;;
11731;SDS011;5922;53.734;10.258;2023-08-31T00:39:24;11.43;;;10.17;;
11731;SDS011;5922;53.734;10.258;2023-08-31T00:41:53;10.13;;;9.13;;
11731;SDS011;5922;53.734;10.258;2023-08-31T00:44:21;10.70;;;9.00;;
11731;SDS011;5922;53.734;10.258;2023-08-31T00:46:49;9.67;;;8.77;;
11731;SDS011;5922;53.734;10.258;2023-08-31T00:49:17;10.30;;;9.37;;
11731;SDS011;5922;53.734;10.258;2023-08-31T00:51:45;10.63;;;9.53;;
11731;SDS011;5922;53.734;10.258;2023-08-31T00:54:15;9.63;;;8.63;;
11731;SDS011;5922;53.734;10.258;2023-08-31T00:56:43;10.90;;;9.00;;
11731;SDS011;5922;53.734;10.258;2023-08-31T00:59:10;9.73;;;8.83;;
11731;SDS011;5922;53.734;10.258;2023-08-31T01:01:39;10.30;;;8.83;;
11731;SDS011;5922;53.734;10.258;2023-08-31T01:04:14;10.30;;;9.23;;
11731;SDS011;5922;53.734;10.258;2023-08-31T01:06:47;9.43;;;8.53;;
11731;SDS011;5922;53.734;10.258;2023-08-31T01:09:19;11.00;;;8.70;;
11731;SDS011;5922;53.734;10.258;2023-08-31T01:11:54;9.40;;;8.03;;
11731;SDS011;5922;53.734;10.258;2023-08-31T01:14:23;9.63;;;8.63;;
11731;SDS011;5922;53.734;10.258;2023-08-31T01:16:51;9.53;;;8.53;;
11731;SDS011;5922;53.734;10.258;2023-08-31T01:19:26;9.80;;;8.80;;
11731;SDS011;5922;53.734;10.258;2023-08-31T01:21:57;9.37;;;8.13;;
11731;SDS011;5922;53.734;10.258;2023-08-31T01:24:28;10.77;;;8.43;;
11731;SDS011;5922;53.734;10.258;2023-08-31T01:26:56;9.67;;;8.63;;
11731;SDS011;5922;53.734;10.258;2023-08-31T01:29:23;9.60;;;8.60;;
11731;SDS011;5922;53.734;10.258;2023-08-31T01:31:50;9.93;;;8.47;;
11731;SDS011;5922;53.734;10.258;2023-08-31T01:34:18;9.73;;;8.73;;
11731;SDS011;5922;53.734;10.258;2023-08-31T01:36:46;9.37;;;8.47;;
11731;SDS011;5922;53.734;10.258;2023-08-31T01:39:17;8.70;;;7.87;;
11731;SDS011;5922;53.734;10.258;2023-08-31T01:41:48;10.27;;;8.43;;
11731;SDS011;5922;53.734;10.258;2023-08-31T01:44:18;11.60;;;8.43;;
11731;SDS011;5922;53.734;10.258;2023-08-31T01:46:45;9.13;;;8.27;;
11731;SDS011;5922;53.734;10.258;2023-08-31T01:49:13;9.13;;;8.17;;
11731;SDS011;5922;53.734;10.258;2023-08-31T01:51:40;8.53;;;7.73;;
11731;SDS011;5922;53.734;10.258;2023-08-31T01:54:07;7.70;;;6.90;;
11731;SDS011;5922;53.734;10.258;2023-08-31T01:56:35;12.77;;;7.50;;
11731;SDS011;5922;53.734;10.258;2023-08-31T01:59:03;8.50;;;7.80;;
11731;SDS011;5922;53.734;10.258;2023-08-31T02:01:32;8.40;;;7.50;;
11731;SDS011;5922;53.734;10.258;2023-08-31T02:03:59;7.23;;;6.63;;
11731;SDS011;5922;53.734;10.258;2023-08-31T02:06:26;9.83;;;7.47;;
11731;SDS011;5922;53.734;10.258;2023-08-31T02:08:53;6.90;;;6.20;;
11731;SDS011;5922;53.734;10.258;2023-08-31T02:11:21;7.83;;;6.77;;
11731;SDS011;5922;53.734;10.258;2023-08-31T02:13:48;9.10;;;6.50;;
11731;SDS011;5922;53.734;10.258;2023-08-31T02:16:16;9.13;;;7.13;;
11731;SDS011;5922;53.734;10.258;2023-08-31T02:18:44;9.20;;;6.70;;
11731;SDS011;5922;53.734;10.258;2023-08-31T02:21:11;6.80;;;6.20;;
11731;SDS011;5922;53.734;10.258;2023-08-31T02:23:38;9.03;;;6.23;;
11731;SDS011;5922;53.734;10.258;2023-08-31T02:26:05;7.93;;;6.40;;
11731;SDS011;5922;53.734;10.258;2023-08-31T02:28:33;9.43;;;6.80;;
11731;SDS011;5922;53.734;10.258;2023-08-31T02:31:01;9.50;;;6.50;;
11731;SDS011;5922;53.734;10.258;2023-08-31T02:33:30;7.83;;;6.33;;
11731;SDS011;5922;53.734;10.258;2023-08-31T02:35:57;6.87;;;6.07;;
11731;SDS011;5922;53.734;10.258;2023-08-31T02:38:24;6.77;;;5.80;;
11731;SDS011;5922;53.734;10.258;2023-08-31T02:40:52;6.30;;;5.70;;
11731;SDS011;5922;53.734;10.258;2023-08-31T02:43:19;6.23;;;5.63;;
11731;SDS011;5922;53.734;10.258;2023-08-31T02:45:46;7.57;;;6.50;;
11731;SDS011;5922;53.734;10.258;2023-08-31T02:48:13;6.50;;;5.90;;
11731;SDS011;5922;53.734;10.258;2023-08-31T02:50:42;6.37;;;5.77;;
11731;SDS011;5922;53.734;10.258;2023-08-31T02:53:09;7.13;;;5.63;;
11731;SDS011;5922;53.734;10.258;2023-08-31T02:55:36;6.03;;;5.50;;
11731;SDS011;5922;53.734;10.258;2023-08-31T02:58:04;6.57;;;5.93;;
11731;SDS011;5922;53.734;10.258;2023-08-31T03:00:31;6.40;;;5.73;;
11731;SDS011;5922;53.734;10.258;2023-08-31T03:02:58;5.40;;;4.90;;
11731;SDS011;5922;53.734;10.258;2023-08-31T03:05:25;8.17;;;5.23;;
11731;SDS011;5922;53.734;10.258;2023-08-31T03:07:54;7.80;;;5.57;;
11731;SDS011;5922;53.734;10.258;2023-08-31T03:10:22;6.60;;;5.80;;
11731;SDS011;5922;53.734;10.258;2023-08-31T03:12:49;6.27;;;5.53;;
11731;SDS011;5922;53.734;10.258;2023-08-31T03:15:16;6.83;;;5.10;;
11731;SDS011;5922;53.734;10.258;2023-08-31T03:17:44;12.47;;;5.93;;
11731;SDS011;5922;53.734;10.258;2023-08-31T03:20:11;8.33;;;5.73;;
11731;SDS011;5922;53.734;10.258;2023-08-31T03:22:38;8.87;;;5.67;;
11731;SDS011;5922;53.734;10.258;2023-08-31T03:25:07;6.13;;;5.53;;
11731;SDS011;5922;53.734;10.258;2023-08-31T03:27:34;8.20;;;5.37;;
11731;SDS011;5922;53.734;10.258;2023-08-31T03:30:02;5.67;;;4.97;;
11731;SDS011;5922;53.734;10.258;2023-08-31T03:32:29;6.47;;;5.17;;
11731;SDS011;5922;53.734;10.258;2023-08-31T03:34:56;6.03;;;5.43;;
11731;SDS011;5922;53.734;10.258;2023-08-31T03:37:24;8.17;;;5.47;;
11731;SDS011;5922;53.734;10.258;2023-08-31T03:39:51;8.37;;;5.70;;
11731;SDS011;5922;53.734;10.258;2023-08-31T03:42:20;6.23;;;5.17;;
11731;SDS011;5922;53.734;10.258;2023-08-31T03:44:47;6.97;;;5.13;;
11731;SDS011;5922;53.734;10.258;2023-08-31T03:47:14;8.53;;;4.90;;
11731;SDS011;5922;53.734;10.258;2023-08-31T03:49:41;6.50;;;5.23;;
11731;SDS011;5922;53.734;10.258;2023-08-31T03:52:08;7.57;;;4.70;;
11731;SDS011;5922;53.734;10.258;2023-08-31T03:54:35;6.13;;;5.23;;
11731;SDS011;5922;53.734;10.258;2023-08-31T03:57:03;8.40;;;5.50;;
11731;SDS011;5922;53.734;10.258;2023-08-31T03:59:32;6.17;;;5.57;;
11731;SDS011;5922;53.734;10.258;2023-08-31T04:01:59;6.07;;;4.93;;
11731;SDS011;5922;53.734;10.258;2023-08-31T04:04:27;7.13;;;5.30;;
11731;SDS011;5922;53.734;10.258;2023-08-31T04:06:54;5.30;;;4.80;;
11731;SDS011;5922;53.734;10.258;2023-08-31T04:09:21;7.27;;;4.70;;
11731;SDS011;5922;53.734;10.258;2023-08-31T04:11:48;5.30;;;4.80;;
11731;SDS011;5922;53.734;10.258;2023-08-31T04:14:16;5.10;;;4.53;;
11731;SDS011;5922;53.734;10.258;2023-08-31T04:16:44;5.73;;;4.80;;
11731;SDS011;5922;53.734;10.258;2023-08-31T04:19:14;5.13;;;4.50;;
11731;SDS011;5922;53.734;10.258;2023-08-31T04:21:41;7.20;;;4.73;;
11731;SDS011;5922;53.734;10.258;2023-08-31T04:24:09;6.17;;;5.00;;
11731;SDS011;5922;53.734;10.258;2023-08-31T04:26:36;7.07;;;4.90;;
11731;SDS011;5922;53.734;10.258;2023-08-31T04:29:03;6.20;;;5.03;;
11731;SDS011;5922;53.734;10.258;2023-08-31T04:31:31;5.30;;;4.80;;
11731;SDS011;5922;53.734;10.258;2023-08-31T04:34:00;7.90;;;4.70;;
11731;SDS011;5922;53.734;10.258;2023-08-31T04:36:27;7.43;;;4.90;;
11731;SDS011;5922;53.734;10.258;2023-08-31T04:38:54;6.30;;;4.63;;
11731;SDS011;5922;53.734;10.258;2023-08-31T04:41:21;6.80;;;4.70;;
11731;SDS011;5922;53.734;10.258;2023-08-31T04:43:49;5.97;;;4.40;;
11731;SDS011;5922;53.734;10.258;2023-08-31T04:46:16;5.47;;;4.53;;
11731;SDS011;5922;53.734;10.258;2023-08-31T04:48:44;6.47;;;3.90;;
11731;SDS011;5922;53.734;10.258;2023-08-31T04:53:55;5.90;;;4.13;;
11731;SDS011;5922;53.734;10.258;2023-08-31T04:56:22;4.73;;;4.00;;
11731;SDS011;5922;53.734;10.258;2023-08-31T04:58:50;6.93;;;4.30;;
11731;SDS011;5922;53.734;10.258;2023-08-31T05:01:17;5.40;;;4.30;;
11731;SDS011;5922;53.734;10.258;2023-08-31T05:03:44;4.43;;;4.03;;
11731;SDS011;5922;53.734;10.258;2023-08-31T05:06:11;8.30;;;4.87;;
11731;SDS011;5922;53.734;10.258;2023-08-31T05:11:37;6.13;;;3.73;;
11731;SDS011;5922;53.734;10.258;2023-08-31T05:14:04;6.13;;;3.63;;
11731;SDS011;5922;53.734;10.258;2023-08-31T05:16:31;4.87;;;3.70;;
11731;SDS011;5922;53.734;10.258;2023-08-31T05:18:59;4.17;;;3.73;;
11731;SDS011;5922;53.734;10.258;2023-08-31T05:21:32;4.63;;;3.70;;
11731;SDS011;5922;53.734;10.258;2023-08-31T05:24:00;6.77;;;3.57;;
11731;SDS011;5922;53.734;10.258;2023-08-31T05:26:28;4.67;;;3.30;;
11731;SDS011;5922;53.734;10.258;2023-08-31T05:28:57;5.83;;;3.37;;
11731;SDS011;5922;53.734;10.258;2023-08-31T05:31:24;5.70;;;3.17;;
11731;SDS011;5922;53.734;10.258;2023-08-31T05:33:51;5.53;;;3.17;;
11731;SDS011;5922;53.734;10.258;2023-08-31T05:36:18;7.73;;;3.13;;
11731;SDS011;5922;53.734;10.258;2023-08-31T05:38:45;5.60;;;3.37;;
11731;SDS011;5922;53.734;10.258;2023-08-31T05:41:13;5.67;;;3.17;;
11731;SDS011;5922;53.734;10.258;2023-08-31T05:43:43;6.23;;;3.03;;
11731;SDS011;5922;53.734;10.258;2023-08-31T05:46:12;4.10;;;3.00;;
11731;SDS011;5922;53.734;10.258;2023-08-31T05:48:39;4.30;;;3.17;;
11731;SDS011;5922;53.734;10.258;2023-08-31T05:51:06;5.00;;;3.17;;
11731;SDS011;5922;53.734;10.258;2023-08-31T05:53:34;3.93;;;3.00;;
11731;SDS011;5922;53.734;10.258;2023-08-31T05:56:02;5.87;;;3.10;;
11731;SDS011;5922;53.734;10.258;2023-08-31T05:58:30;5.43;;;3.60;;
11731;SDS011;5922;53.734;10.258;2023-08-31T06:00:58;6.87;;;3.13;;
11731;SDS011;5922;53.734;10.258;2023-08-31T06:03:36;8.87;;;3.63;;
11731;SDS011;5922;53.734;10.258;2023-08-31T06:06:03;8.40;;;3.10;;
11731;SDS011;5922;53.734;10.258;2023-08-31T06:08:31;5.07;;;3.03;;
11731;SDS011;5922;53.734;10.258;2023-08-31T06:10:58;5.67;;;3.33;;
11731;SDS011;5922;53.734;10.258;2023-08-31T06:13:25;3.20;;;2.90;;
11731;SDS011;5922;53.734;10.258;2023-08-31T06:15:52;7.63;;;3.30;;
11731;SDS011;5922;53.734;10.258;2023-08-31T06:18:20;3.13;;;2.57;;
11731;SDS011;5922;53.734;10.258;2023-08-31T06:20:50;3.47;;;2.83;;
11731;SDS011;5922;53.734;10.258;2023-08-31T06:23:17;5.07;;;3.17;;
11731;SDS011;5922;53.734;10.258;2023-08-31T06:25:44;6.73;;;3.20;;
11731;SDS011;5922;53.734;10.258;2023-08-31T06:28:11;3.83;;;2.90;;
11731;SDS011;5922;53.734;10.258;2023-08-31T06:30:39;4.53;;;2.90;;
11731;SDS011;5922;53.734;10.258;2023-08-31T06:33:09;4.00;;;2.57;;
11731;SDS011;5922;53.734;10.258;2023-08-31T06:35:37;7.53;;;3.00;;
11731;SDS011;5922;53.734;10.258;2023-08-31T06:38:05;8.23;;;2.90;;
11731;SDS011;5922;53.734;10.258;2023-08-31T06:40:32;4.50;;;2.63;;
11731;SDS011;5922;53.734;10.258;2023-08-31T06:43:00;4.63;;;2.80;;
11731;SDS011;5922;53.734;10.258;2023-08-31T06:45:28;4.93;;;2.77;;
11731;SDS011;5922;53.734;10.258;2023-08-31T06:47:55;2.90;;;2.27;;
11731;SDS011;5922;53.734;10.258;2023-08-31T06:50:23;3.57;;;2.60;;
11731;SDS011;5922;53.734;10.258;2023-08-31T06:52:50;3.93;;;2.27;;
11731;SDS011;5922;53.734;10.258;2023-08-31T06:55:19;3.23;;;2.30;;
11731;SDS011;5922;53.734;10.258;2023-08-31T06:57:46;4.60;;;2.60;;
11731;SDS011;5922;53.734;10.258;2023-08-31T07:00:13;4.47;;;2.37;;
11731;SDS011;5922;53.734;10.258;2023-08-31T07:02:40;4.70;;;2.53;;
11731;SDS011;5922;53.734;10.258;2023-08-31T07:05:09;4.80;;;2.33;;
11731;SDS011;5922;53.734;10.258;2023-08-31T07:07:37;3.40;;;1.83;;
11731;SDS011;5922;53.734;10.258;2023-08-31T07:10:04;3.10;;;2.10;;
11731;SDS011;5922;53.734;10.258;2023-08-31T07:12:33;2.70;;;2.40;;
11731;SDS011;5922;53.734;10.258;2023-08-31T07:15:00;3.63;;;2.53;;
11731;SDS011;5922;53.734;10.258;2023-08-31T07:17:28;2.53;;;2.23;;
11731;SDS011;5922;53.734;10.258;2023-08-31T07:19:56;3.57;;;2.30;;
11731;SDS011;5922;53.734;10.258;2023-08-31T07:22:23;6.97;;;2.23;;
11731;SDS011;5922;53.734;10.258;2023-08-31T07:24:50;3.57;;;2.23;;
11731;SDS011;5922;53.734;10.258;2023-08-31T07:27:17;4.23;;;2.17;;
11731;SDS011;5922;53.734;10.258;2023-08-31T07:29:46;6.67;;;1.93;;
11731;SDS011;5922;53.734;10.258;2023-08-31T07:32:13;4.90;;;2.30;;
11731;SDS011;5922;53.734;10.258;2023-08-31T07:34:40;5.73;;;2.13;;
11731;SDS011;5922;53.734;10.258;2023-08-31T07:37:10;4.33;;;2.30;;
11731;SDS011;5922;53.734;10.258;2023-08-31T07:42:19;4.10;;;2.20;;
11731;SDS011;5922;53.734;10.258;2023-08-31T07:45:10;3.70;;;2.17;;
11731;SDS011;5922;53.734;10.258;2023-08-31T07:47:57;4.60;;;1.90;;
11731;SDS011;5922;53.734;10.258;2023-08-31T07:50:31;5.43;;;2.00;;
11731;SDS011;5922;53.734;10.258;2023-08-31T07:53:13;3.23;;;2.07;;
11731;SDS011;5922;53.734;10.258;2023-08-31T07:55:51;6.00;;;2.03;;
11731;SDS011;5922;53.734;10.258;2023-08-31T07:58:29;1.87;;;1.53;;
11731;SDS011;5922;53.734;10.258;2023-08-31T08:00:58;2.40;;;1.63;;
11731;SDS011;5922;53.734;10.258;2023-08-31T08:03:26;4.93;;;2.13;;
11731;SDS011;5922;53.734;10.258;2023-08-31T08:05:53;2.70;;;1.80;;
11731;SDS011;5922;53.734;10.258;2023-08-31T08:08:22;2.73;;;1.60;;
11731;SDS011;5922;53.734;10.258;2023-08-31T08:10:51;2.67;;;1.80;;
11731;SDS011;5922;53.734;10.258;2023-08-31T08:16:31;1.97;;;1.53;;
11731;SDS011;5922;53.734;10.258;2023-08-31T08:19:00;3.60;;;1.57;;
11731;SDS011;5922;53.734;10.258;2023-08-31T08:21:28;4.00;;;1.50;;
11731;SDS011;5922;53.734;10.258;2023-08-31T08:23:55;3.10;;;1.50;;
11731;SDS011;5922;53.734;10.258;2023-08-31T08:26:22;2.60;;;1.53;;
11731;SDS011;5922;53.734;10.258;2023-08-31T08:28:50;2.47;;;1.50;;
11731;SDS011;5922;53.734;10.258;2023-08-31T08:32:51;3.23;;;1.43;;
11731;SDS011;5922;53.734;10.258;2023-08-31T08:34:39;1.73;;;1.30;;
11731;SDS011;5922;53.734;10.258;2023-08-31T08:37:14;2.23;;;1.10;;
11731;SDS011;5922;53.734;10.258;2023-08-31T08:39:41;3.07;;;1.57;;
11731;SDS011;5922;53.734;10.258;2023-08-31T08:42:09;7.00;;;1.50;;
11731;SDS011;5922;53.734;10.258;2023-08-31T08:44:37;3.83;;;1.63;;
11731;SDS011;5922;53.734;10.258;2023-08-31T08:47:04;2.97;;;1.40;;
11731;SDS011;5922;53.734;10.258;2023-08-31T08:49:32;2.50;;;1.30;;
11731;SDS011;5922;53.734;10.258;2023-08-31T08:52:03;2.40;;;1.20;;
11731;SDS011;5922;53.734;10.258;2023-08-31T08:54:30;2.10;;;1.50;;
11731;SDS011;5922;53.734;10.258;2023-08-31T08:56:57;6.43;;;1.73;;
11731;SDS011;5922;53.734;10.258;2023-08-31T08:59:26;2.43;;;1.30;;
11731;SDS011;5922;53.734;10.258;2023-08-31T09:01:54;4.47;;;1.57;;
11731;SDS011;5922;53.734;10.258;2023-08-31T09:04:24;1.90;;;1.60;;
11731;SDS011;5922;53.734;10.258;2023-08-31T09:06:53;3.50;;;1.73;;
11731;SDS011;5922;53.734;10.258;2023-08-31T09:09:22;2.30;;;1.67;;
11731;SDS011;5922;53.734;10.258;2023-08-31T09:11:49;2.57;;;1.43;;
11731;SDS011;5922;53.734;10.258;2023-08-31T09:14:17;1.63;;;1.43;;
11731;SDS011;5922;53.734;10.258;2023-08-31T09:16:45;2.67;;;1.40;;
11731;SDS011;5922;53.734;10.258;2023-08-31T09:19:22;3.17;;;1.57;;
11731;SDS011;5922;53.734;10.258;2023-08-31T09:21:55;2.43;;;1.50;;
11731;SDS011;5922;53.734;10.258;2023-08-31T09:24:24;3.13;;;1.50;;
11731;SDS011;5922;53.734;10.258;2023-08-31T09:26:52;2.87;;;1.50;;
11731;SDS011;5922;53.734;10.258;2023-08-31T09:29:19;2.23;;;1.40;;
11731;SDS011;5922;53.734;10.258;2023-08-31T09:31:46;3.80;;;1.50;;
11731;SDS011;5922;53.734;10.258;2023-08-31T09:34:14;1.53;;;1.43;;
11731;SDS011;5922;53.734;10.258;2023-08-31T09:36:51;1.43;;;1.33;;
11731;SDS011;5922;53.734;10.258;2023-08-31T09:43:16;2.40;;;1.70;;
11731;SDS011;5922;53.734;10.258;2023-08-31T09:46:16;2.90;;;1.50;;
11731;SDS011;5922;53.734;10.258;2023-08-31T09:48:47;2.33;;;1.60;;
11731;SDS011;5922;53.734;10.258;2023-08-31T09:54:27;1.70;;;1.40;;
11731;SDS011;5922;53.734;10.258;2023-08-31T09:57:05;2.33;;;1.43;;
11731;SDS011;5922;53.734;10.258;2023-08-31T09:59:39;3.90;;;1.70;;
11731;SDS011;5922;53.734;10.258;2023-08-31T10:02:07;3.73;;;1.60;;
11731;SDS011;5922;53.734;10.258;2023-08-31T10:04:42;1.80;;;1.40;;
11731;SDS011;5922;53.734;10.258;2023-08-31T10:15:36;4.70;;;1.63;;
11731;SDS011;5922;53.734;10.258;2023-08-31T10:18:26;4.63;;;1.97;;
11731;SDS011;5922;53.734;10.258;2023-08-31T11:09:28;2.57;;;1.47;;
11731;SDS011;5922;53.734;10.258;2023-08-31T11:11:56;4.33;;;1.53;;
11731;SDS011;5922;53.734;10.258;2023-08-31T11:14:23;1.73;;;1.33;;
11731;SDS011;5922;53.734;10.258;2023-08-31T11:17:09;2.83;;;1.63;;
11731;SDS011;5922;53.734;10.258;2023-08-31T11:19:51;4.13;;;1.50;;
11731;SDS011;5922;53.734;10.258;2023-08-31T11:22:18;3.07;;;1.60;;
11731;SDS011;5922;53.734;10.258;2023-08-31T11:24:47;3.40;;;1.40;;
11731;SDS011;5922;53.734;10.258;2023-08-31T11:30:04;1.50;;;1.40;;
11731;SDS011;5922;53.734;10.258;2023-08-31T11:32:45;2.03;;;1.43;;
11731;SDS011;5922;53.734;10.258;2023-08-31T11:35:18;2.77;;;1.57;;
11731;SDS011;5922;53.734;10.258;2023-08-31T11:38:12;3.37;;;1.70;;
11731;SDS011;5922;53.734;10.258;2023-08-31T11:44:03;3.87;;;1.73;;
11731;SDS011;5922;53.734;10.258;2023-08-31T11:46:31;2.47;;;1.50;;
11731;SDS011;5922;53.734;10.258;2023-08-31T11:48:59;1.57;;;1.20;;
11731;SDS011;5922;53.734;10.258;2023-08-31T11:51:26;2.93;;;1.53;;
11731;SDS011;5922;53.734;10.258;2023-08-31T11:56:42;2.37;;;1.30;;
11731;SDS011;5922;53.734;10.258;2023-08-31T11:59:14;1.93;;;1.40;;
11731;SDS011;5922;53.734;10.258;2023-08-31T12:01:42;2.63;;;1.60;;
11731;SDS011;5922;53.734;10.258;2023-08-31T12:04:13;2.97;;;1.53;;
11731;SDS011;5922;53.734;10.258;2023-08-31T12:06:41;5.07;;;1.67;;
11731;SDS011;5922;53.734;10.258;2023-08-31T12:09:23;2.27;;;1.60;;
11731;SDS011;5922;53.734;10.258;2023-08-31T12:11:50;3.30;;;1.40;;
11731;SDS011;5922;53.734;10.258;2023-08-31T12:14:19;2.90;;;1.13;;
11731;SDS011;5922;53.734;10.258;2023-08-31T12:16:59;2.43;;;1.40;;
11731;SDS011;5922;53.734;10.258;2023-08-31T12:19:32;1.60;;;1.10;;
11731;SDS011;5922;53.734;10.258;2023-08-31T12:22:00;3.00;;;1.00;;
11731;SDS011;5922;53.734;10.258;2023-08-31T12:24:38;2.03;;;1.30;;
11731;SDS011;5922;53.734;10.258;2023-08-31T12:27:05;3.70;;;1.30;;
11731;SDS011;5922;53.734;10.258;2023-08-31T12:29:41;1.50;;;1.30;;
11731;SDS011;5922;53.734;10.258;2023-08-31T12:32:08;3.43;;;1.27;;
11731;SDS011;5922;53.734;10.258;2023-08-31T12:34:35;1.90;;;1.30;;
11731;SDS011;5922;53.734;10.258;2023-08-31T12:37:03;2.47;;;1.40;;
11731;SDS011;5922;53.734;10.258;2023-08-31T12:39:30;1.90;;;1.20;;
11731;SDS011;5922;53.734;10.258;2023-08-31T12:41:58;1.40;;;1.30;;
11731;SDS011;5922;53.734;10.258;2023-08-31T12:44:25;1.43;;;1.23;;
11731;SDS011;5922;53.734;10.258;2023-08-31T12:47:00;2.27;;;1.30;;
11731;SDS011;5922;53.734;10.258;2023-08-31T12:49:29;2.40;;;1.20;;
11731;SDS011;5922;53.734;10.258;2023-08-31T12:51:57;1.87;;;1.27;;
11731;SDS011;5922;53.734;10.258;2023-08-31T12:54:24;8.60;;;1.77;;
11731;SDS011;5922;53.734;10.258;2023-08-31T12:56:51;3.97;;;1.33;;
11731;SDS011;5922;53.734;10.258;2023-08-31T12:59:18;1.03;;;0.83;;
11731;SDS011;5922;53.734;10.258;2023-08-31T13:01:46;1.37;;;0.93;;
11731;SDS011;5922;53.734;10.258;2023-08-31T13:04:15;1.60;;;1.20;;
11731;SDS011;5922;53.734;10.258;2023-08-31T13:06:47;1.40;;;0.90;;
11731;SDS011;5922;53.734;10.258;2023-08-31T13:09:24;1.43;;;0.60;;
11731;SDS011;5922;53.734;10.258;2023-08-31T13:11:53;0.60;;;0.60;;
11731;SDS011;5922;53.734;10.258;2023-08-31T13:14:23;0.53;;;0.53;;
11731;SDS011;5922;53.734;10.258;2023-08-31T13:16:51;0.77;;;0.77;;
11731;SDS011;5922;53.734;10.258;2023-08-31T13:19:22;0.73;;;0.70;;
11731;SDS011;5922;53.734;10.258;2023-08-31T13:21:50;1.27;;;0.60;;
11731;SDS011;5922;53.734;10.258;2023-08-31T13:24:17;0.93;;;0.70;;
11731;SDS011;5922;53.734;10.258;2023-08-31T13:26:46;1.73;;;0.67;;
11731;SDS011;5922;53.734;10.258;2023-08-31T13:29:14;0.63;;;0.63;;
11731;SDS011;5922;53.734;10.258;2023-08-31T13:31:41;0.77;;;0.73;;
11731;SDS011;5922;53.734;10.258;2023-08-31T13:34:09;2.90;;;1.03;;
11731;SDS011;5922;53.734;10.258;2023-08-31T13:36:40;0.87;;;0.87;;
11731;SDS011;5922;53.734;10.258;2023-08-31T13:39:07;1.07;;;0.80;;
11731;SDS011;5922;53.734;10.258;2023-08-31T13:41:37;0.83;;;0.83;;
11731;SDS011;5922;53.734;10.258;2023-08-31T13:44:05;0.93;;;0.87;;
11731;SDS011;5922;53.734;10.258;2023-08-31T13:46:33;0.63;;;0.63;;
11731;SDS011;5922;53.734;10.258;2023-08-31T13:49:03;1.00;;;0.90;;
11731;SDS011;5922;53.734;10.258;2023-08-31T13:51:42;0.90;;;0.90;;
11731;SDS011;5922;53.734;10.258;2023-08-31T14:03:13;1.10;;;1.00;;
11731;SDS011;5922;53.734;10.258;2023-08-31T14:05:42;1.60;;;1.00;;
11731;SDS011;5922;53.734;10.258;2023-08-31T14:08:11;1.10;;;0.97;;
11731;SDS011;5922;53.734;10.258;2023-08-31T14:10:39;0.80;;;0.80;;
11731;SDS011;5922;53.734;10.258;2023-08-31T14:13:06;1.50;;;1.13;;
11731;SDS011;5922;53.734;10.258;2023-08-31T14:15:33;1.00;;;0.80;;
11731;SDS011;5922;53.734;10.258;2023-08-31T14:18:02;1.47;;;1.30;;
11731;SDS011;5922;53.734;10.258;2023-08-31T14:20:29;1.40;;;0.90;;
11731;SDS011;5922;53.734;10.258;2023-08-31T14:22:57;1.10;;;1.00;;
11731;SDS011;5922;53.734;10.258;2023-08-31T14:25:26;1.20;;;1.00;;
11731;SDS011;5922;53.734;10.258;2023-08-31T14:27:53;1.53;;;1.00;;
11731;SDS011;5922;53.734;10.258;2023-08-31T14:30:23;0.90;;;0.80;;
11731;SDS011;5922;53.734;10.258;2023-08-31T14:32:50;2.13;;;1.10;;
11731;SDS011;5922;53.734;10.258;2023-08-31T14:35:17;0.80;;;0.80;;
11731;SDS011;5922;53.734;10.258;2023-08-31T14:37:45;0.90;;;0.90;;
11731;SDS011;5922;53.734;10.258;2023-08-31T14:40:12;1.20;;;1.10;;
11731;SDS011;5922;53.734;10.258;2023-08-31T14:42:41;0.93;;;0.93;;
11731;SDS011;5922;53.734;10.258;2023-08-31T14:45:08;1.53;;;1.23;;
11731;SDS011;5922;53.734;10.258;2023-08-31T14:47:36;2.27;;;1.10;;
11731;SDS011;5922;53.734;10.258;2023-08-31T14:50:03;1.40;;;1.00;;
11731;SDS011;5922;53.734;10.258;2023-08-31T14:52:31;1.10;;;1.00;;
11731;SDS011;5922;53.734;10.258;2023-08-31T14:55:00;1.03;;;0.90;;
11731;SDS011;5922;53.734;10.258;2023-08-31T14:57:28;1.70;;;0.97;;
11731;SDS011;5922;53.734;10.258;2023-08-31T14:59:57;1.47;;;1.13;;
11731;SDS011;5922;53.734;10.258;2023-08-31T15:02:25;1.13;;;1.00;;
11731;SDS011;5922;53.734;10.258;2023-08-31T15:05:09;5.30;;;1.20;;
11731;SDS011;5922;53.734;10.258;2023-08-31T15:07:36;1.67;;;1.37;;
11731;SDS011;5922;53.734;10.258;2023-08-31T15:23:08;1.70;;;0.90;;
11731;SDS011;5922;53.734;10.258;2023-08-31T15:25:44;0.80;;;0.80;;
11731;SDS011;5922;53.734;10.258;2023-08-31T15:34:35;2.30;;;1.20;;
11731;SDS011;5922;53.734;10.258;2023-08-31T15:37:02;1.20;;;1.00;;
11731;SDS011;5922;53.734;10.258;2023-08-31T15:39:31;3.90;;;1.30;;
11731;SDS011;5922;53.734;10.258;2023-08-31T15:41:58;1.63;;;1.00;;
11731;SDS011;5922;53.734;10.258;2023-08-31T15:44:26;2.37;;;1.00;;
11731;SDS011;5922;53.734;10.258;2023-08-31T15:49:34;1.80;;;1.00;;
11731;SDS011;5922;53.734;10.258;2023-08-31T15:52:01;2.40;;;1.07;;
11731;SDS011;5922;53.734;10.258;2023-08-31T15:54:28;2.63;;;1.20;;
11731;SDS011;5922;53.734;10.258;2023-08-31T15:56:57;5.33;;;1.40;;
11731;SDS011;5922;53.734;10.258;2023-08-31T15:59:24;1.87;;;1.10;;
11731;SDS011;5922;53.734;10.258;2023-08-31T16:01:51;4.63;;;1.10;;
11731;SDS011;5922;53.734;10.258;2023-08-31T16:04:22;2.67;;;1.07;;
11731;SDS011;5922;53.734;10.258;2023-08-31T16:56:21;2.17;;;1.10;;
11731;SDS011;5922;53.734;10.258;2023-08-31T16:58:48;1.83;;;1.13;;
11731;SDS011;5922;53.734;10.258;2023-08-31T17:01:20;1.17;;;1.00;;
11731;SDS011;5922;53.734;10.258;2023-08-31T17:03:48;0.90;;;0.90;;
11731;SDS011;5922;53.734;10.258;2023-08-31T17:06:15;1.10;;;1.00;;
11731;SDS011;5922;53.734;10.258;2023-08-31T17:08:43;2.33;;;1.10;;
11731;SDS011;5922;53.734;10.258;2023-08-31T17:11:10;2.23;;;1.17;;
11731;SDS011;5922;53.734;10.258;2023-08-31T17:13:39;1.03;;;0.93;;
11731;SDS011;5922;53.734;10.258;2023-08-31T17:16:09;2.13;;;1.17;;
11731;SDS011;5922;53.734;10.258;2023-08-31T17:18:37;1.47;;;1.07;;
11731;SDS011;5922;53.734;10.258;2023-08-31T17:21:05;2.23;;;1.17;;
11731;SDS011;5922;53.734;10.258;2023-08-31T17:23:39;1.90;;;1.17;;
11731;SDS011;5922;53.734;10.258;2023-08-31T17:26:07;2.93;;;1.20;;
11731;SDS011;5922;53.734;10.258;2023-08-31T17:28:34;3.43;;;1.10;;
11731;SDS011;5922;53.734;10.258;2023-08-31T17:33:45;1.20;;;1.10;;
11731;SDS011;5922;53.734;10.258;2023-08-31T17:36:12;2.53;;;1.07;;
11731;SDS011;5922;53.734;10.258;2023-08-31T17:38:40;1.40;;;1.00;;
11731;SDS011;5922;53.734;10.258;2023-08-31T17:41:07;2.23;;;1.23;;
11731;SDS011;5922;53.734;10.258;2023-08-31T17:43:35;2.07;;;1.30;;
11731;SDS011;5922;53.734;10.258;2023-08-31T17:46:03;3.10;;;1.40;;